sensor_id;sensor_type;location;lat;lon;timestamp;temperature;humidity
17495;DHT22;8864;51.970;4.614;2022-10-31T00:01:35;20.30;78.60
17495;DHT22;8864;51.970;4.614;2022-10-31T00:04:04;20.20;78.50
17495;DHT22;8864;51.970;4.614;2022-10-31T00:06:31;20.20;78.50
17495;DHT22;8864;51.970;4.614;2022-10-31T00:08:59;20.30;78.60
17495;DHT22;8864;51.970;4.614;2022-10-31T00:11:27;20.30;78.60
17495;DHT22;8864;51.970;4.614;2022-10-31T00:13:56;20.30;78.60
17495;DHT22;8864;51.970;4.614;2022-10-31T00:16:24;20.30;78.60
17495;DHT22;8864;51.970;4.614;2022-10-31T00:19:02;20.30;78.70
17495;DHT22;8864;51.970;4.614;2022-10-31T00:21:30;20.30;78.80
17495;DHT22;8864;51.970;4.614;2022-10-31T00:23:57;20.30;78.70
17495;DHT22;8864;51.970;4.614;2022-10-31T00:26:26;20.20;78.70
17495;DHT22;8864;51.970;4.614;2022-10-31T00:28:52;20.20;78.60
17495;DHT22;8864;51.970;4.614;2022-10-31T00:31:36;20.30;78.80
17495;DHT22;8864;51.970;4.614;2022-10-31T00:34:15;20.20;78.70
17495;DHT22;8864;51.970;4.614;2022-10-31T00:37:00;20.20;78.70
17495;DHT22;8864;51.970;4.614;2022-10-31T00:39:33;20.30;78.80
17495;DHT22;8864;51.970;4.614;2022-10-31T00:42:06;20.20;78.80
17495;DHT22;8864;51.970;4.614;2022-10-31T00:44:42;20.30;78.80
17495;DHT22;8864;51.970;4.614;2022-10-31T00:47:25;20.30;78.80
17495;DHT22;8864;51.970;4.614;2022-10-31T00:49:52;20.30;79.60
17495;DHT22;8864;51.970;4.614;2022-10-31T00:52:20;20.20;78.80
17495;DHT22;8864;51.970;4.614;2022-10-31T00:54:46;20.20;78.80
17495;DHT22;8864;51.970;4.614;2022-10-31T00:57:15;20.20;78.80
17495;DHT22;8864;51.970;4.614;2022-10-31T00:59:42;20.30;78.80
17495;DHT22;8864;51.970;4.614;2022-10-31T01:02:08;20.20;78.80
17495;DHT22;8864;51.970;4.614;2022-10-31T01:04:37;20.20;78.80
17495;DHT22;8864;51.970;4.614;2022-10-31T01:07:03;20.20;78.80
17495;DHT22;8864;51.970;4.614;2022-10-31T01:09:40;20.20;78.70
17495;DHT22;8864;51.970;4.614;2022-10-31T01:12:20;20.20;78.70
17495;DHT22;8864;51.970;4.614;2022-10-31T01:14:56;20.30;78.70
17495;DHT22;8864;51.970;4.614;2022-10-31T01:17:23;20.20;78.60
17495;DHT22;8864;51.970;4.614;2022-10-31T01:19:54;20.20;78.60
17495;DHT22;8864;51.970;4.614;2022-10-31T01:22:21;20.30;78.70
17495;DHT22;8864;51.970;4.614;2022-10-31T01:24:48;20.20;78.60
17495;DHT22;8864;51.970;4.614;2022-10-31T01:27:14;20.20;79.40
17495;DHT22;8864;51.970;4.614;2022-10-31T01:29:41;20.20;78.60
17495;DHT22;8864;51.970;4.614;2022-10-31T01:32:08;20.30;78.60
17495;DHT22;8864;51.970;4.614;2022-10-31T01:34:35;20.20;78.60
17495;DHT22;8864;51.970;4.614;2022-10-31T01:37:18;20.10;78.50
17495;DHT22;8864;51.970;4.614;2022-10-31T01:39:47;20.20;78.50
17495;DHT22;8864;51.970;4.614;2022-10-31T01:42:26;20.10;78.40
17495;DHT22;8864;51.970;4.614;2022-10-31T01:45:10;20.20;78.50
17495;DHT22;8864;51.970;4.614;2022-10-31T01:47:46;20.10;78.30
17495;DHT22;8864;51.970;4.614;2022-10-31T01:50:29;20.20;78.40
17495;DHT22;8864;51.970;4.614;2022-10-31T01:53:01;20.20;78.40
17495;DHT22;8864;51.970;4.614;2022-10-31T01:55:30;20.10;78.30
17495;DHT22;8864;51.970;4.614;2022-10-31T01:58:03;20.10;78.30
17495;DHT22;8864;51.970;4.614;2022-10-31T02:00:30;20.10;78.30
17495;DHT22;8864;51.970;4.614;2022-10-31T02:02:58;20.10;78.30
17495;DHT22;8864;51.970;4.614;2022-10-31T02:05:35;20.20;78.30
17495;DHT22;8864;51.970;4.614;2022-10-31T02:08:19;20.10;78.30
17495;DHT22;8864;51.970;4.614;2022-10-31T02:10:46;20.10;78.30
17495;DHT22;8864;51.970;4.614;2022-10-31T02:13:34;20.10;78.20
17495;DHT22;8864;51.970;4.614;2022-10-31T02:16:10;20.10;78.30
17495;DHT22;8864;51.970;4.614;2022-10-31T02:18:37;20.10;78.20
17495;DHT22;8864;51.970;4.614;2022-10-31T02:21:09;20.10;78.30
17495;DHT22;8864;51.970;4.614;2022-10-31T02:26:52;20.10;78.20
17495;DHT22;8864;51.970;4.614;2022-10-31T02:32:27;20.10;78.10
17495;DHT22;8864;51.970;4.614;2022-10-31T02:34:59;20.10;78.10
17495;DHT22;8864;51.970;4.614;2022-10-31T02:37:34;20.10;78.10
17495;DHT22;8864;51.970;4.614;2022-10-31T02:40:08;20.10;78.10
17495;DHT22;8864;51.970;4.614;2022-10-31T02:42:43;20.10;78.10
17495;DHT22;8864;51.970;4.614;2022-10-31T02:45:18;20.10;78.00
17495;DHT22;8864;51.970;4.614;2022-10-31T02:47:49;20.10;78.00
17495;DHT22;8864;51.970;4.614;2022-10-31T02:50:19;20.10;78.00
17495;DHT22;8864;51.970;4.614;2022-10-31T02:53:06;20.10;78.00
17495;DHT22;8864;51.970;4.614;2022-10-31T02:55:50;20.10;78.00
17495;DHT22;8864;51.970;4.614;2022-10-31T02:58:20;20.10;77.90
17495;DHT22;8864;51.970;4.614;2022-10-31T03:01:05;20.00;77.80
17495;DHT22;8864;51.970;4.614;2022-10-31T03:03:48;20.00;77.80
17495;DHT22;8864;51.970;4.614;2022-10-31T03:06:22;20.10;77.80
17495;DHT22;8864;51.970;4.614;2022-10-31T03:08:57;20.10;77.90
17495;DHT22;8864;51.970;4.614;2022-10-31T03:11:31;20.00;77.70
17495;DHT22;8864;51.970;4.614;2022-10-31T03:14:04;20.00;77.70
17495;DHT22;8864;51.970;4.614;2022-10-31T03:16:40;20.10;77.70
17495;DHT22;8864;51.970;4.614;2022-10-31T03:19:14;20.00;77.60
17495;DHT22;8864;51.970;4.614;2022-10-31T03:21:52;20.00;77.60
17495;DHT22;8864;51.970;4.614;2022-10-31T03:24:20;20.00;77.70
17495;DHT22;8864;51.970;4.614;2022-10-31T03:26:51;20.00;77.70
17495;DHT22;8864;51.970;4.614;2022-10-31T03:29:22;20.00;77.70
17495;DHT22;8864;51.970;4.614;2022-10-31T03:31:54;20.00;77.70
17495;DHT22;8864;51.970;4.614;2022-10-31T03:34:23;20.00;77.70
17495;DHT22;8864;51.970;4.614;2022-10-31T03:36:52;20.00;77.70
17495;DHT22;8864;51.970;4.614;2022-10-31T03:39:21;20.10;77.70
17495;DHT22;8864;51.970;4.614;2022-10-31T03:41:55;20.00;77.60
17495;DHT22;8864;51.970;4.614;2022-10-31T03:44:24;20.00;77.70
17495;DHT22;8864;51.970;4.614;2022-10-31T03:46:52;20.00;77.60
17495;DHT22;8864;51.970;4.614;2022-10-31T03:49:19;20.00;77.60
17495;DHT22;8864;51.970;4.614;2022-10-31T03:51:52;20.00;77.60
17495;DHT22;8864;51.970;4.614;2022-10-31T03:54:25;20.00;77.60
17495;DHT22;8864;51.970;4.614;2022-10-31T03:56:57;20.00;77.60
17495;DHT22;8864;51.970;4.614;2022-10-31T03:59:29;20.00;77.60
17495;DHT22;8864;51.970;4.614;2022-10-31T04:02:03;20.00;77.60
17495;DHT22;8864;51.970;4.614;2022-10-31T04:04:48;20.00;77.50
17495;DHT22;8864;51.970;4.614;2022-10-31T04:07:21;20.00;77.50
17495;DHT22;8864;51.970;4.614;2022-10-31T04:09:50;20.00;77.60
17495;DHT22;8864;51.970;4.614;2022-10-31T04:12:19;20.00;77.50
17495;DHT22;8864;51.970;4.614;2022-10-31T04:14:48;20.00;77.50
17495;DHT22;8864;51.970;4.614;2022-10-31T04:17:23;20.00;77.50
17495;DHT22;8864;51.970;4.614;2022-10-31T04:19:51;20.00;77.40
17495;DHT22;8864;51.970;4.614;2022-10-31T04:22:19;20.00;77.40
17495;DHT22;8864;51.970;4.614;2022-10-31T04:24:46;20.00;77.40
17495;DHT22;8864;51.970;4.614;2022-10-31T04:27:29;20.00;77.40
17495;DHT22;8864;51.970;4.614;2022-10-31T04:29:56;20.10;77.50
17495;DHT22;8864;51.970;4.614;2022-10-31T04:32:23;20.00;77.40
17495;DHT22;8864;51.970;4.614;2022-10-31T04:34:50;20.00;77.40
17495;DHT22;8864;51.970;4.614;2022-10-31T04:37:27;19.90;77.40
17495;DHT22;8864;51.970;4.614;2022-10-31T04:40:06;19.90;77.30
17495;DHT22;8864;51.970;4.614;2022-10-31T04:42:37;20.00;77.30
17495;DHT22;8864;51.970;4.614;2022-10-31T04:45:04;20.00;77.30
17495;DHT22;8864;51.970;4.614;2022-10-31T04:47:32;19.90;77.30
17495;DHT22;8864;51.970;4.614;2022-10-31T04:50:01;20.00;77.30
17495;DHT22;8864;51.970;4.614;2022-10-31T04:52:38;19.90;77.30
17495;DHT22;8864;51.970;4.614;2022-10-31T04:55:06;19.90;77.30
17495;DHT22;8864;51.970;4.614;2022-10-31T04:57:40;19.90;77.20
17495;DHT22;8864;51.970;4.614;2022-10-31T05:00:08;19.90;77.20
17495;DHT22;8864;51.970;4.614;2022-10-31T05:02:42;19.90;77.20
17495;DHT22;8864;51.970;4.614;2022-10-31T05:05:09;19.90;77.20
17495;DHT22;8864;51.970;4.614;2022-10-31T05:07:39;19.90;77.30
17495;DHT22;8864;51.970;4.614;2022-10-31T05:10:07;19.90;77.20
17495;DHT22;8864;51.970;4.614;2022-10-31T05:12:36;19.90;77.20
17495;DHT22;8864;51.970;4.614;2022-10-31T05:15:03;19.90;77.10
17495;DHT22;8864;51.970;4.614;2022-10-31T05:17:31;19.90;77.10
17495;DHT22;8864;51.970;4.614;2022-10-31T05:19:58;20.00;77.20
17495;DHT22;8864;51.970;4.614;2022-10-31T05:22:25;20.00;77.20
17495;DHT22;8864;51.970;4.614;2022-10-31T05:24:53;20.00;77.20
17495;DHT22;8864;51.970;4.614;2022-10-31T05:27:20;20.00;77.30
17495;DHT22;8864;51.970;4.614;2022-10-31T05:29:47;19.90;77.20
17495;DHT22;8864;51.970;4.614;2022-10-31T05:32:16;19.90;77.20
17495;DHT22;8864;51.970;4.614;2022-10-31T05:34:43;19.90;77.10
17495;DHT22;8864;51.970;4.614;2022-10-31T05:37:09;19.90;77.10
17495;DHT22;8864;51.970;4.614;2022-10-31T05:39:45;19.90;77.10
17495;DHT22;8864;51.970;4.614;2022-10-31T05:42:16;19.90;77.10
17495;DHT22;8864;51.970;4.614;2022-10-31T05:45:01;19.90;77.10
17495;DHT22;8864;51.970;4.614;2022-10-31T05:47:28;19.90;77.10
17495;DHT22;8864;51.970;4.614;2022-10-31T05:49:55;19.90;77.10
17495;DHT22;8864;51.970;4.614;2022-10-31T05:52:28;19.80;77.30
17495;DHT22;8864;51.970;4.614;2022-10-31T05:55:06;19.90;77.70
17495;DHT22;8864;51.970;4.614;2022-10-31T05:57:35;19.90;77.60
17495;DHT22;8864;51.970;4.614;2022-10-31T06:00:04;19.90;77.60
17495;DHT22;8864;51.970;4.614;2022-10-31T06:02:31;19.80;77.50
17495;DHT22;8864;51.970;4.614;2022-10-31T06:05:00;19.80;77.30
17495;DHT22;8864;51.970;4.614;2022-10-31T06:07:26;19.80;77.20
17495;DHT22;8864;51.970;4.614;2022-10-31T06:10:09;19.80;77.10
17495;DHT22;8864;51.970;4.614;2022-10-31T06:12:37;19.80;76.90
17495;DHT22;8864;51.970;4.614;2022-10-31T06:15:07;19.80;76.80
17495;DHT22;8864;51.970;4.614;2022-10-31T06:17:35;19.80;76.60
17495;DHT22;8864;51.970;4.614;2022-10-31T06:20:03;19.80;76.60
17495;DHT22;8864;51.970;4.614;2022-10-31T06:22:30;19.80;76.60
17495;DHT22;8864;51.970;4.614;2022-10-31T06:24:57;19.80;76.70
17495;DHT22;8864;51.970;4.614;2022-10-31T06:27:24;19.90;76.90
17495;DHT22;8864;51.970;4.614;2022-10-31T06:29:53;19.80;76.90
17495;DHT22;8864;51.970;4.614;2022-10-31T06:32:33;19.90;77.00
17495;DHT22;8864;51.970;4.614;2022-10-31T06:35:04;19.80;76.80
17495;DHT22;8864;51.970;4.614;2022-10-31T06:37:31;19.80;76.60
17495;DHT22;8864;51.970;4.614;2022-10-31T06:39:58;19.80;76.60
17495;DHT22;8864;51.970;4.614;2022-10-31T06:42:24;19.80;76.30
17495;DHT22;8864;51.970;4.614;2022-10-31T06:44:53;19.90;76.20
17495;DHT22;8864;51.970;4.614;2022-10-31T06:47:25;19.70;75.90
17495;DHT22;8864;51.970;4.614;2022-10-31T06:50:05;19.90;75.60
17495;DHT22;8864;51.970;4.614;2022-10-31T06:52:41;19.70;75.80
17495;DHT22;8864;51.970;4.614;2022-10-31T06:55:24;19.70;75.00
17495;DHT22;8864;51.970;4.614;2022-10-31T06:57:52;19.70;74.70
17495;DHT22;8864;51.970;4.614;2022-10-31T07:00:22;19.70;74.50
17495;DHT22;8864;51.970;4.614;2022-10-31T07:08:51;19.70;74.10
17495;DHT22;8864;51.970;4.614;2022-10-31T07:11:26;19.70;74.20
17495;DHT22;8864;51.970;4.614;2022-10-31T07:14:10;19.70;74.20
17495;DHT22;8864;51.970;4.614;2022-10-31T07:19:26;19.80;74.60
17495;DHT22;8864;51.970;4.614;2022-10-31T07:22:08;19.70;74.60
17495;DHT22;8864;51.970;4.614;2022-10-31T07:24:38;19.70;74.60
17495;DHT22;8864;51.970;4.614;2022-10-31T07:29:56;19.70;74.40
17495;DHT22;8864;51.970;4.614;2022-10-31T07:32:23;19.70;74.40
17495;DHT22;8864;51.970;4.614;2022-10-31T07:34:55;19.80;74.40
17495;DHT22;8864;51.970;4.614;2022-10-31T07:37:22;19.70;74.30
17495;DHT22;8864;51.970;4.614;2022-10-31T07:39:57;19.70;74.30
17495;DHT22;8864;51.970;4.614;2022-10-31T07:42:24;19.70;74.30
17495;DHT22;8864;51.970;4.614;2022-10-31T07:45:08;19.70;74.20
17495;DHT22;8864;51.970;4.614;2022-10-31T07:47:50;19.70;74.20
17495;DHT22;8864;51.970;4.614;2022-10-31T07:50:29;19.70;74.10
17495;DHT22;8864;51.970;4.614;2022-10-31T07:56:13;19.70;74.00
17495;DHT22;8864;51.970;4.614;2022-10-31T07:58:55;19.70;74.10
17495;DHT22;8864;51.970;4.614;2022-10-31T08:04:55;19.80;74.00
17495;DHT22;8864;51.970;4.614;2022-10-31T08:07:49;19.70;74.00
17495;DHT22;8864;51.970;4.614;2022-10-31T08:10:17;19.80;74.00
17495;DHT22;8864;51.970;4.614;2022-10-31T08:12:44;19.70;74.00
17495;DHT22;8864;51.970;4.614;2022-10-31T08:15:19;19.70;74.10
17495;DHT22;8864;51.970;4.614;2022-10-31T08:17:55;19.70;73.90
17495;DHT22;8864;51.970;4.614;2022-10-31T08:20:31;19.70;73.90
17495;DHT22;8864;51.970;4.614;2022-10-31T08:23:12;19.70;73.90
17495;DHT22;8864;51.970;4.614;2022-10-31T08:25:42;19.80;73.90
17495;DHT22;8864;51.970;4.614;2022-10-31T08:28:12;19.70;74.60
17495;DHT22;8864;51.970;4.614;2022-10-31T08:30:41;19.80;73.90
17495;DHT22;8864;51.970;4.614;2022-10-31T08:33:26;19.70;73.90
17495;DHT22;8864;51.970;4.614;2022-10-31T08:35:52;19.80;73.90
17495;DHT22;8864;51.970;4.614;2022-10-31T08:38:20;19.80;73.90
17495;DHT22;8864;51.970;4.614;2022-10-31T08:41:02;19.80;73.90
17495;DHT22;8864;51.970;4.614;2022-10-31T08:43:54;19.80;73.90
17495;DHT22;8864;51.970;4.614;2022-10-31T08:46:39;19.80;73.70
17495;DHT22;8864;51.970;4.614;2022-10-31T08:49:06;19.80;73.70
17495;DHT22;8864;51.970;4.614;2022-10-31T08:51:37;19.90;73.90
17495;DHT22;8864;51.970;4.614;2022-10-31T08:54:07;19.80;73.90
17495;DHT22;8864;51.970;4.614;2022-10-31T08:56:43;19.80;73.90
17495;DHT22;8864;51.970;4.614;2022-10-31T08:59:10;19.80;73.70
17495;DHT22;8864;51.970;4.614;2022-10-31T09:01:39;19.80;73.80
17495;DHT22;8864;51.970;4.614;2022-10-31T09:04:07;19.80;73.70
17495;DHT22;8864;51.970;4.614;2022-10-31T09:06:34;19.80;73.90
17495;DHT22;8864;51.970;4.614;2022-10-31T09:09:01;19.90;73.80
17495;DHT22;8864;51.970;4.614;2022-10-31T09:11:41;19.90;73.80
17495;DHT22;8864;51.970;4.614;2022-10-31T09:14:10;20.00;73.90
17495;DHT22;8864;51.970;4.614;2022-10-31T09:16:37;19.90;73.80
17495;DHT22;8864;51.970;4.614;2022-10-31T09:19:13;19.90;73.80
17495;DHT22;8864;51.970;4.614;2022-10-31T09:21:40;19.90;73.80
17495;DHT22;8864;51.970;4.614;2022-10-31T09:24:07;19.90;73.90
17495;DHT22;8864;51.970;4.614;2022-10-31T09:26:41;19.90;73.90
17495;DHT22;8864;51.970;4.614;2022-10-31T09:29:08;19.90;73.90
17495;DHT22;8864;51.970;4.614;2022-10-31T09:34:58;20.00;74.00
17495;DHT22;8864;51.970;4.614;2022-10-31T09:37:26;20.00;74.20
17495;DHT22;8864;51.970;4.614;2022-10-31T09:40:09;20.00;74.20
17495;DHT22;8864;51.970;4.614;2022-10-31T09:43:13;20.00;74.20
17495;DHT22;8864;51.970;4.614;2022-10-31T09:46:22;20.10;75.30
17495;DHT22;8864;51.970;4.614;2022-10-31T09:49:28;20.20;75.40
17495;DHT22;8864;51.970;4.614;2022-10-31T09:52:22;20.00;75.10
17495;DHT22;8864;51.970;4.614;2022-10-31T09:58:16;20.10;74.90
17495;DHT22;8864;51.970;4.614;2022-10-31T10:00:46;20.10;74.80
17495;DHT22;8864;51.970;4.614;2022-10-31T10:03:23;20.10;74.80
17495;DHT22;8864;51.970;4.614;2022-10-31T10:05:57;20.10;74.60
17495;DHT22;8864;51.970;4.614;2022-10-31T10:08:48;20.10;74.60
17495;DHT22;8864;51.970;4.614;2022-10-31T10:11:33;20.10;74.80
17495;DHT22;8864;51.970;4.614;2022-10-31T10:14:42;20.20;74.80
17495;DHT22;8864;51.970;4.614;2022-10-31T10:17:38;20.20;75.00
17495;DHT22;8864;51.970;4.614;2022-10-31T10:20:26;20.20;75.00
17495;DHT22;8864;51.970;4.614;2022-10-31T10:23:22;20.20;75.00
17495;DHT22;8864;51.970;4.614;2022-10-31T10:26:15;20.20;75.00
17495;DHT22;8864;51.970;4.614;2022-10-31T10:28:48;20.20;75.10
17495;DHT22;8864;51.970;4.614;2022-10-31T10:31:21;20.20;75.20
17495;DHT22;8864;51.970;4.614;2022-10-31T10:33:57;20.20;75.10
17495;DHT22;8864;51.970;4.614;2022-10-31T10:36:29;20.20;75.10
17495;DHT22;8864;51.970;4.614;2022-10-31T10:39:14;20.20;75.20
17495;DHT22;8864;51.970;4.614;2022-10-31T10:41:55;20.30;75.30
17495;DHT22;8864;51.970;4.614;2022-10-31T10:44:42;20.30;75.20
17495;DHT22;8864;51.970;4.614;2022-10-31T10:47:33;20.30;75.20
17495;DHT22;8864;51.970;4.614;2022-10-31T10:50:10;20.30;75.30
17495;DHT22;8864;51.970;4.614;2022-10-31T10:52:46;20.30;75.30
17495;DHT22;8864;51.970;4.614;2022-10-31T10:55:29;20.30;75.40
17495;DHT22;8864;51.970;4.614;2022-10-31T10:58:09;20.40;75.40
17495;DHT22;8864;51.970;4.614;2022-10-31T11:00:39;20.30;75.30
17495;DHT22;8864;51.970;4.614;2022-10-31T11:03:18;20.30;75.30
17495;DHT22;8864;51.970;4.614;2022-10-31T11:05:48;20.30;75.40
17495;DHT22;8864;51.970;4.614;2022-10-31T11:08:23;20.40;75.50
17495;DHT22;8864;51.970;4.614;2022-10-31T11:11:35;20.30;75.40
17495;DHT22;8864;51.970;4.614;2022-10-31T11:14:16;20.40;75.40
17495;DHT22;8864;51.970;4.614;2022-10-31T11:16:46;20.40;75.40
17495;DHT22;8864;51.970;4.614;2022-10-31T11:19:25;20.40;75.40
17495;DHT22;8864;51.970;4.614;2022-10-31T11:22:05;20.40;75.40
17495;DHT22;8864;51.970;4.614;2022-10-31T11:24:37;20.40;75.40
17495;DHT22;8864;51.970;4.614;2022-10-31T11:27:13;20.50;75.50
17495;DHT22;8864;51.970;4.614;2022-10-31T11:29:41;20.50;75.50
17495;DHT22;8864;51.970;4.614;2022-10-31T11:32:17;20.50;75.60
17495;DHT22;8864;51.970;4.614;2022-10-31T11:35:11;20.50;75.60
17495;DHT22;8864;51.970;4.614;2022-10-31T11:37:48;20.50;76.50
17495;DHT22;8864;51.970;4.614;2022-10-31T11:40:18;20.50;75.70
17495;DHT22;8864;51.970;4.614;2022-10-31T11:42:46;20.50;75.70
17495;DHT22;8864;51.970;4.614;2022-10-31T11:45:15;20.50;75.70
17495;DHT22;8864;51.970;4.614;2022-10-31T11:47:47;20.50;75.70
17495;DHT22;8864;51.970;4.614;2022-10-31T11:50:21;20.50;75.70
17495;DHT22;8864;51.970;4.614;2022-10-31T11:52:52;20.50;75.70
17495;DHT22;8864;51.970;4.614;2022-10-31T11:58:04;20.50;75.70
17495;DHT22;8864;51.970;4.614;2022-10-31T12:00:38;20.60;75.80
17495;DHT22;8864;51.970;4.614;2022-10-31T12:03:18;20.50;75.70
17495;DHT22;8864;51.970;4.614;2022-10-31T12:06:03;20.50;75.80
17495;DHT22;8864;51.970;4.614;2022-10-31T12:09:00;20.60;75.70
17495;DHT22;8864;51.970;4.614;2022-10-31T12:12:14;20.50;75.70
17495;DHT22;8864;51.970;4.614;2022-10-31T12:15:09;20.60;75.80
17495;DHT22;8864;51.970;4.614;2022-10-31T12:17:56;20.60;75.80
17495;DHT22;8864;51.970;4.614;2022-10-31T12:20:52;20.60;75.80
17495;DHT22;8864;51.970;4.614;2022-10-31T12:23:45;20.60;75.80
17495;DHT22;8864;51.970;4.614;2022-10-31T12:26:18;20.70;75.90
17495;DHT22;8864;51.970;4.614;2022-10-31T12:29:02;20.60;75.70
17495;DHT22;8864;51.970;4.614;2022-10-31T12:31:49;20.60;75.80
17495;DHT22;8864;51.970;4.614;2022-10-31T12:35:02;20.60;75.80
17495;DHT22;8864;51.970;4.614;2022-10-31T12:38:00;20.70;75.90
17495;DHT22;8864;51.970;4.614;2022-10-31T12:40:59;20.70;76.00
17495;DHT22;8864;51.970;4.614;2022-10-31T12:44:00;20.60;76.00
17495;DHT22;8864;51.970;4.614;2022-10-31T12:50:32;20.60;76.10
17495;DHT22;8864;51.970;4.614;2022-10-31T12:53:38;20.60;76.20
17495;DHT22;8864;51.970;4.614;2022-10-31T12:56:22;20.60;76.20
17495;DHT22;8864;51.970;4.614;2022-10-31T12:59:21;20.60;76.20
17495;DHT22;8864;51.970;4.614;2022-10-31T13:01:59;20.70;76.30
17495;DHT22;8864;51.970;4.614;2022-10-31T13:04:46;20.80;76.30
17495;DHT22;8864;51.970;4.614;2022-10-31T13:07:37;20.60;76.20
17495;DHT22;8864;51.970;4.614;2022-10-31T13:10:17;20.60;76.20
17495;DHT22;8864;51.970;4.614;2022-10-31T13:12:57;20.60;76.20
17495;DHT22;8864;51.970;4.614;2022-10-31T13:15:27;20.60;76.20
17495;DHT22;8864;51.970;4.614;2022-10-31T13:18:04;20.60;76.20
17495;DHT22;8864;51.970;4.614;2022-10-31T13:20:43;20.60;76.30
17495;DHT22;8864;51.970;4.614;2022-10-31T13:23:17;20.60;76.50
17495;DHT22;8864;51.970;4.614;2022-10-31T13:25:50;20.60;76.50
17495;DHT22;8864;51.970;4.614;2022-10-31T13:28:26;20.70;76.70
17495;DHT22;8864;51.970;4.614;2022-10-31T13:30:57;20.60;77.40
17495;DHT22;8864;51.970;4.614;2022-10-31T13:33:28;20.60;76.80
17495;DHT22;8864;51.970;4.614;2022-10-31T13:36:14;20.60;76.70
17495;DHT22;8864;51.970;4.614;2022-10-31T13:38:48;20.70;76.80
17495;DHT22;8864;51.970;4.614;2022-10-31T13:41:27;20.60;76.70
17495;DHT22;8864;51.970;4.614;2022-10-31T13:44:02;20.60;76.70
17495;DHT22;8864;51.970;4.614;2022-10-31T13:46:38;20.60;76.80
17495;DHT22;8864;51.970;4.614;2022-10-31T13:49:24;20.60;76.70
17495;DHT22;8864;51.970;4.614;2022-10-31T13:51:52;20.60;76.70
17495;DHT22;8864;51.970;4.614;2022-10-31T13:54:29;20.60;76.80
17495;DHT22;8864;51.970;4.614;2022-10-31T13:56:58;20.60;77.00
17495;DHT22;8864;51.970;4.614;2022-10-31T13:59:28;20.60;76.90
17495;DHT22;8864;51.970;4.614;2022-10-31T14:01:59;20.60;77.00
17495;DHT22;8864;51.970;4.614;2022-10-31T14:04:30;20.60;77.00
17495;DHT22;8864;51.970;4.614;2022-10-31T14:07:05;20.60;77.00
17495;DHT22;8864;51.970;4.614;2022-10-31T14:09:34;20.60;77.10
17495;DHT22;8864;51.970;4.614;2022-10-31T14:12:04;20.70;77.10
17495;DHT22;8864;51.970;4.614;2022-10-31T14:14:47;20.60;77.10
17495;DHT22;8864;51.970;4.614;2022-10-31T14:17:22;20.60;77.10
17495;DHT22;8864;51.970;4.614;2022-10-31T14:20:01;20.60;77.10
17495;DHT22;8864;51.970;4.614;2022-10-31T14:22:32;20.60;77.20
17495;DHT22;8864;51.970;4.614;2022-10-31T14:24:59;20.70;77.40
17495;DHT22;8864;51.970;4.614;2022-10-31T14:27:44;20.60;77.40
17495;DHT22;8864;51.970;4.614;2022-10-31T14:30:19;20.60;77.40
17495;DHT22;8864;51.970;4.614;2022-10-31T14:32:51;20.60;77.40
17495;DHT22;8864;51.970;4.614;2022-10-31T14:35:20;20.60;77.60
17495;DHT22;8864;51.970;4.614;2022-10-31T14:38:05;20.60;77.60
17495;DHT22;8864;51.970;4.614;2022-10-31T14:40:46;20.60;77.60
17495;DHT22;8864;51.970;4.614;2022-10-31T14:43:29;20.60;77.60
17495;DHT22;8864;51.970;4.614;2022-10-31T14:46:07;20.60;77.70
17495;DHT22;8864;51.970;4.614;2022-10-31T14:48:51;20.60;77.80
17495;DHT22;8864;51.970;4.614;2022-10-31T14:51:26;20.50;77.90
17495;DHT22;8864;51.970;4.614;2022-10-31T14:53:56;20.60;77.90
17495;DHT22;8864;51.970;4.614;2022-10-31T14:56:26;20.50;78.00
17495;DHT22;8864;51.970;4.614;2022-10-31T14:58:55;20.50;78.10
17495;DHT22;8864;51.970;4.614;2022-10-31T15:01:26;20.50;78.20
17495;DHT22;8864;51.970;4.614;2022-10-31T15:03:57;20.60;78.30
17495;DHT22;8864;51.970;4.614;2022-10-31T15:06:25;20.60;78.30
17495;DHT22;8864;51.970;4.614;2022-10-31T15:08:53;20.50;78.30
17495;DHT22;8864;51.970;4.614;2022-10-31T15:11:23;20.50;78.30
17495;DHT22;8864;51.970;4.614;2022-10-31T15:13:52;20.50;78.30
17495;DHT22;8864;51.970;4.614;2022-10-31T15:16:21;20.50;78.30
17495;DHT22;8864;51.970;4.614;2022-10-31T15:18:54;20.50;78.30
17495;DHT22;8864;51.970;4.614;2022-10-31T15:21:24;20.50;78.30
17495;DHT22;8864;51.970;4.614;2022-10-31T15:23:55;20.50;78.20
17495;DHT22;8864;51.970;4.614;2022-10-31T15:26:23;20.50;78.20
17495;DHT22;8864;51.970;4.614;2022-10-31T15:28:59;20.50;78.20
17495;DHT22;8864;51.970;4.614;2022-10-31T15:31:27;20.50;78.20
17495;DHT22;8864;51.970;4.614;2022-10-31T15:34:00;20.50;78.20
17495;DHT22;8864;51.970;4.614;2022-10-31T15:36:27;20.40;78.00
17495;DHT22;8864;51.970;4.614;2022-10-31T15:38:55;20.40;78.10
17495;DHT22;8864;51.970;4.614;2022-10-31T15:41:28;20.40;78.00
17495;DHT22;8864;51.970;4.614;2022-10-31T15:44:00;20.40;78.00
17495;DHT22;8864;51.970;4.614;2022-10-31T15:46:28;20.40;78.00
17495;DHT22;8864;51.970;4.614;2022-10-31T15:48:57;20.40;78.10
17495;DHT22;8864;51.970;4.614;2022-10-31T15:51:29;20.40;78.20
17495;DHT22;8864;51.970;4.614;2022-10-31T15:53:57;20.40;78.30
17495;DHT22;8864;51.970;4.614;2022-10-31T15:56:27;20.40;78.30
17495;DHT22;8864;51.970;4.614;2022-10-31T15:58:59;20.40;78.40
17495;DHT22;8864;51.970;4.614;2022-10-31T16:01:36;20.50;78.50
17495;DHT22;8864;51.970;4.614;2022-10-31T16:04:20;20.40;78.60
17495;DHT22;8864;51.970;4.614;2022-10-31T16:07:00;20.40;78.60
17495;DHT22;8864;51.970;4.614;2022-10-31T16:09:28;20.30;78.60
17495;DHT22;8864;51.970;4.614;2022-10-31T16:11:56;20.40;78.60
17495;DHT22;8864;51.970;4.614;2022-10-31T16:14:27;20.30;78.60
17495;DHT22;8864;51.970;4.614;2022-10-31T16:16:57;20.30;78.70
17495;DHT22;8864;51.970;4.614;2022-10-31T16:19:30;20.30;78.60
17495;DHT22;8864;51.970;4.614;2022-10-31T16:22:04;20.40;78.60
17495;DHT22;8864;51.970;4.614;2022-10-31T16:24:33;20.40;78.60
17495;DHT22;8864;51.970;4.614;2022-10-31T16:27:03;20.30;78.50
17495;DHT22;8864;51.970;4.614;2022-10-31T16:29:35;20.30;78.50
17495;DHT22;8864;51.970;4.614;2022-10-31T16:32:04;20.30;78.50
17495;DHT22;8864;51.970;4.614;2022-10-31T16:34:32;20.30;78.50
17495;DHT22;8864;51.970;4.614;2022-10-31T16:36:59;20.30;78.50
17495;DHT22;8864;51.970;4.614;2022-10-31T16:39:28;20.30;78.50
17495;DHT22;8864;51.970;4.614;2022-10-31T16:41:55;20.30;78.50
17495;DHT22;8864;51.970;4.614;2022-10-31T16:44:24;20.30;78.50
17495;DHT22;8864;51.970;4.614;2022-10-31T16:47:08;20.30;78.50
17495;DHT22;8864;51.970;4.614;2022-10-31T16:49:43;20.30;78.50
17495;DHT22;8864;51.970;4.614;2022-10-31T16:52:10;20.30;78.50
17495;DHT22;8864;51.970;4.614;2022-10-31T16:54:37;20.30;78.50
17495;DHT22;8864;51.970;4.614;2022-10-31T16:57:05;20.30;79.30
17495;DHT22;8864;51.970;4.614;2022-10-31T16:59:33;20.30;78.50
17495;DHT22;8864;51.970;4.614;2022-10-31T17:02:01;20.30;78.60
17495;DHT22;8864;51.970;4.614;2022-10-31T17:04:29;20.30;78.60
17495;DHT22;8864;51.970;4.614;2022-10-31T17:06:58;20.30;78.60
17495;DHT22;8864;51.970;4.614;2022-10-31T17:09:24;20.20;78.50